Decoded Metar for NTAA (Tahiti Papeete in FRENCH POLYNESIA) (IATA:N/A) | Meteo·Mobile Aviation Weather
aviador You're here:

NTAA Decoded Metar

Tahiti Papeete in FRENCH POLYNESIA
Report Time2018-09-21 17:00:00
UTC Time2018-09-21 17:19:45
Flight Rules vfr VFR
Wind070° at 04 kt
W.Decomp.*RWY 04: 3.8 kt HW 1.2 kt RCW
W.Rank070° ranks 2
Current wind is below 070° avg. (7.2)
Visibility9999 m
Phenomena:N/A
Clouds:Few 025 Hf
Scattered 080 Hf
Broken 240 Hf
Expected CloudBase > 2,000 ft AGL from Temp-Dew spread
Ceiling24,000 ft
Temp24°C (ISA +9)
Dew Point19°C (74% RH)
QNH1012 hPa
Density Alt1,378 ft
Elevation7 ft
Report Wrong Elevation
Raw Report
METAR NTAA 211700Z 07004KT 9999 FEW025 SCT080 BKN240 24/19 Q1012 NOSIG=

Extra information for NTAA:More info

Metar Taf Metar & Taf Last 4 Metars F.Rules Stats Wind Profile Meteogram Temp Stats Airport Information Weather charts Add Link Nearby VenuesMetar ALERT Operation Metar Decoded Social comments